sensor_id;sensor_type;location;lat;lon;timestamp;temperature;humidity
52075;DHT22;38075;53.172;5.446;2022-07-23T00:01:35;13.90;99.90
52075;DHT22;38075;53.172;5.446;2022-07-23T00:04:02;13.90;99.90
52075;DHT22;38075;53.172;5.446;2022-07-23T00:06:27;13.90;99.90
52075;DHT22;38075;53.172;5.446;2022-07-23T00:08:53;13.90;99.90
52075;DHT22;38075;53.172;5.446;2022-07-23T00:11:19;13.90;99.90
52075;DHT22;38075;53.172;5.446;2022-07-23T00:13:45;13.90;99.90
52075;DHT22;38075;53.172;5.446;2022-07-23T00:16:11;13.90;99.90
52075;DHT22;38075;53.172;5.446;2022-07-23T00:18:36;13.70;99.90
52075;DHT22;38075;53.172;5.446;2022-07-23T00:21:02;13.80;99.90
52075;DHT22;38075;53.172;5.446;2022-07-23T00:23:28;13.70;99.90
52075;DHT22;38075;53.172;5.446;2022-07-23T00:25:55;13.60;99.90
52075;DHT22;38075;53.172;5.446;2022-07-23T00:28:21;13.70;99.90
52075;DHT22;38075;53.172;5.446;2022-07-23T00:30:46;13.50;99.90
52075;DHT22;38075;53.172;5.446;2022-07-23T00:33:12;13.40;99.90
52075;DHT22;38075;53.172;5.446;2022-07-23T00:35:40;13.30;99.90
52075;DHT22;38075;53.172;5.446;2022-07-23T00:38:07;13.30;99.90
52075;DHT22;38075;53.172;5.446;2022-07-23T00:40:35;13.20;99.90
52075;DHT22;38075;53.172;5.446;2022-07-23T00:43:00;12.90;99.90
52075;DHT22;38075;53.172;5.446;2022-07-23T00:45:26;12.50;99.90
52075;DHT22;38075;53.172;5.446;2022-07-23T00:47:52;12.20;99.90
52075;DHT22;38075;53.172;5.446;2022-07-23T00:50:18;12.10;99.90
52075;DHT22;38075;53.172;5.446;2022-07-23T00:52:44;12.00;99.90
52075;DHT22;38075;53.172;5.446;2022-07-23T00:55:10;11.90;99.90
52075;DHT22;38075;53.172;5.446;2022-07-23T00:57:37;11.70;99.90
52075;DHT22;38075;53.172;5.446;2022-07-23T01:00:05;11.70;99.90
52075;DHT22;38075;53.172;5.446;2022-07-23T01:02:32;11.60;99.90
52075;DHT22;38075;53.172;5.446;2022-07-23T01:04:57;11.40;99.90
52075;DHT22;38075;53.172;5.446;2022-07-23T01:07:23;11.40;99.90
52075;DHT22;38075;53.172;5.446;2022-07-23T01:09:51;11.40;99.90
52075;DHT22;38075;53.172;5.446;2022-07-23T01:12:17;11.40;99.90
52075;DHT22;38075;53.172;5.446;2022-07-23T01:14:42;11.50;99.90
52075;DHT22;38075;53.172;5.446;2022-07-23T01:17:08;11.50;99.90
52075;DHT22;38075;53.172;5.446;2022-07-23T01:19:34;11.50;99.90
52075;DHT22;38075;53.172;5.446;2022-07-23T01:22:02;11.50;99.90
52075;DHT22;38075;53.172;5.446;2022-07-23T01:24:28;11.60;99.90
52075;DHT22;38075;53.172;5.446;2022-07-23T01:26:54;11.60;99.90
52075;DHT22;38075;53.172;5.446;2022-07-23T01:29:20;11.60;99.90
52075;DHT22;38075;53.172;5.446;2022-07-23T01:31:47;11.50;99.90
52075;DHT22;38075;53.172;5.446;2022-07-23T01:34:13;11.40;99.90
52075;DHT22;38075;53.172;5.446;2022-07-23T01:36:39;11.40;99.90
52075;DHT22;38075;53.172;5.446;2022-07-23T01:39:06;11.30;99.90
52075;DHT22;38075;53.172;5.446;2022-07-23T01:41:32;11.20;99.90
52075;DHT22;38075;53.172;5.446;2022-07-23T01:43:59;11.10;99.90
52075;DHT22;38075;53.172;5.446;2022-07-23T01:46:25;11.10;99.90
52075;DHT22;38075;53.172;5.446;2022-07-23T01:48:51;11.00;99.90
52075;DHT22;38075;53.172;5.446;2022-07-23T01:51:17;11.10;99.90
52075;DHT22;38075;53.172;5.446;2022-07-23T01:53:43;11.00;99.90
52075;DHT22;38075;53.172;5.446;2022-07-23T01:56:08;11.10;99.90
52075;DHT22;38075;53.172;5.446;2022-07-23T01:58:34;11.10;99.90
52075;DHT22;38075;53.172;5.446;2022-07-23T02:01:00;11.20;99.90
52075;DHT22;38075;53.172;5.446;2022-07-23T02:03:26;11.20;99.90
52075;DHT22;38075;53.172;5.446;2022-07-23T02:05:52;11.20;99.90
52075;DHT22;38075;53.172;5.446;2022-07-23T02:08:17;11.20;99.90
52075;DHT22;38075;53.172;5.446;2022-07-23T02:10:44;11.30;99.90
52075;DHT22;38075;53.172;5.446;2022-07-23T02:13:10;11.40;99.90
52075;DHT22;38075;53.172;5.446;2022-07-23T02:15:35;11.40;99.90
52075;DHT22;38075;53.172;5.446;2022-07-23T02:18:01;11.50;99.90
52075;DHT22;38075;53.172;5.446;2022-07-23T02:20:27;11.60;99.90
52075;DHT22;38075;53.172;5.446;2022-07-23T02:22:55;11.50;99.90
52075;DHT22;38075;53.172;5.446;2022-07-23T02:25:23;11.60;99.90
52075;DHT22;38075;53.172;5.446;2022-07-23T02:27:49;11.60;99.90
52075;DHT22;38075;53.172;5.446;2022-07-23T02:30:14;11.60;99.90
52075;DHT22;38075;53.172;5.446;2022-07-23T02:32:40;11.60;99.90
52075;DHT22;38075;53.172;5.446;2022-07-23T02:35:06;11.90;99.90
52075;DHT22;38075;53.172;5.446;2022-07-23T02:37:33;11.70;99.90
52075;DHT22;38075;53.172;5.446;2022-07-23T02:39:58;11.70;99.90
52075;DHT22;38075;53.172;5.446;2022-07-23T02:42:24;11.70;99.90
52075;DHT22;38075;53.172;5.446;2022-07-23T02:44:51;11.80;99.90
52075;DHT22;38075;53.172;5.446;2022-07-23T02:47:16;11.80;99.90
52075;DHT22;38075;53.172;5.446;2022-07-23T02:49:42;11.90;99.90
52075;DHT22;38075;53.172;5.446;2022-07-23T02:52:08;11.90;99.90
52075;DHT22;38075;53.172;5.446;2022-07-23T02:54:36;11.90;99.90
52075;DHT22;38075;53.172;5.446;2022-07-23T02:57:01;11.90;99.90
52075;DHT22;38075;53.172;5.446;2022-07-23T02:59:27;11.90;99.90
52075;DHT22;38075;53.172;5.446;2022-07-23T03:01:53;11.90;99.90
52075;DHT22;38075;53.172;5.446;2022-07-23T03:04:18;11.80;99.90
52075;DHT22;38075;53.172;5.446;2022-07-23T03:06:44;11.80;99.90
52075;DHT22;38075;53.172;5.446;2022-07-23T03:09:09;11.70;99.90
52075;DHT22;38075;53.172;5.446;2022-07-23T03:11:35;11.70;99.90
52075;DHT22;38075;53.172;5.446;2022-07-23T03:14:01;11.70;99.90
52075;DHT22;38075;53.172;5.446;2022-07-23T03:16:26;11.80;99.90
52075;DHT22;38075;53.172;5.446;2022-07-23T03:18:52;11.70;99.90
52075;DHT22;38075;53.172;5.446;2022-07-23T03:21:17;11.70;99.90
52075;DHT22;38075;53.172;5.446;2022-07-23T03:23:43;11.60;99.90
52075;DHT22;38075;53.172;5.446;2022-07-23T03:26:09;11.50;99.90
52075;DHT22;38075;53.172;5.446;2022-07-23T03:28:34;11.40;99.90
52075;DHT22;38075;53.172;5.446;2022-07-23T03:31:00;11.30;99.90
52075;DHT22;38075;53.172;5.446;2022-07-23T03:33:28;11.40;99.90
52075;DHT22;38075;53.172;5.446;2022-07-23T03:35:54;11.30;99.90
52075;DHT22;38075;53.172;5.446;2022-07-23T03:38:20;11.50;99.90
52075;DHT22;38075;53.172;5.446;2022-07-23T03:40:45;11.80;99.90
52075;DHT22;38075;53.172;5.446;2022-07-23T03:43:11;12.00;99.90
52075;DHT22;38075;53.172;5.446;2022-07-23T03:45:37;12.10;99.90
52075;DHT22;38075;53.172;5.446;2022-07-23T03:48:02;12.20;99.90
52075;DHT22;38075;53.172;5.446;2022-07-23T03:50:28;12.20;99.90
52075;DHT22;38075;53.172;5.446;2022-07-23T03:52:53;12.40;99.90
52075;DHT22;38075;53.172;5.446;2022-07-23T03:55:19;12.60;99.90
52075;DHT22;38075;53.172;5.446;2022-07-23T03:57:45;12.80;99.90
52075;DHT22;38075;53.172;5.446;2022-07-23T04:00:11;13.00;99.90
52075;DHT22;38075;53.172;5.446;2022-07-23T04:02:39;13.20;99.90
52075;DHT22;38075;53.172;5.446;2022-07-23T04:05:05;13.30;99.90
52075;DHT22;38075;53.172;5.446;2022-07-23T04:07:31;13.30;99.90
52075;DHT22;38075;53.172;5.446;2022-07-23T04:09:57;13.40;99.90
52075;DHT22;38075;53.172;5.446;2022-07-23T04:12:23;13.50;99.90
52075;DHT22;38075;53.172;5.446;2022-07-23T04:14:49;13.70;99.90
52075;DHT22;38075;53.172;5.446;2022-07-23T04:17:14;13.80;99.90
52075;DHT22;38075;53.172;5.446;2022-07-23T04:19:40;13.90;99.90
52075;DHT22;38075;53.172;5.446;2022-07-23T04:22:10;14.40;99.90
52075;DHT22;38075;53.172;5.446;2022-07-23T04:24:37;14.10;99.90
52075;DHT22;38075;53.172;5.446;2022-07-23T04:27:03;14.40;99.90
52075;DHT22;38075;53.172;5.446;2022-07-23T04:29:29;14.30;99.90
52075;DHT22;38075;53.172;5.446;2022-07-23T04:31:55;14.50;99.90
52075;DHT22;38075;53.172;5.446;2022-07-23T04:34:21;14.80;99.90
52075;DHT22;38075;53.172;5.446;2022-07-23T04:36:47;14.90;99.90
52075;DHT22;38075;53.172;5.446;2022-07-23T04:39:13;15.10;99.90
52075;DHT22;38075;53.172;5.446;2022-07-23T04:41:38;15.50;99.90
52075;DHT22;38075;53.172;5.446;2022-07-23T04:44:04;16.00;99.90
52075;DHT22;38075;53.172;5.446;2022-07-23T04:46:30;15.40;99.90
52075;DHT22;38075;53.172;5.446;2022-07-23T04:48:55;15.40;99.90
52075;DHT22;38075;53.172;5.446;2022-07-23T04:51:21;15.40;99.80
52075;DHT22;38075;53.172;5.446;2022-07-23T04:53:47;15.50;96.40
52075;DHT22;38075;53.172;5.446;2022-07-23T04:56:12;15.50;93.70
52075;DHT22;38075;53.172;5.446;2022-07-23T04:58:38;15.50;91.50
52075;DHT22;38075;53.172;5.446;2022-07-23T05:01:04;15.60;91.30
52075;DHT22;38075;53.172;5.446;2022-07-23T05:03:30;15.60;91.40
52075;DHT22;38075;53.172;5.446;2022-07-23T05:05:55;15.50;90.60
52075;DHT22;38075;53.172;5.446;2022-07-23T05:08:21;15.60;86.40
52075;DHT22;38075;53.172;5.446;2022-07-23T05:10:47;15.50;85.50
52075;DHT22;38075;53.172;5.446;2022-07-23T05:13:17;15.60;84.30
52075;DHT22;38075;53.172;5.446;2022-07-23T05:15:43;15.60;82.50
52075;DHT22;38075;53.172;5.446;2022-07-23T05:18:08;15.60;83.00
52075;DHT22;38075;53.172;5.446;2022-07-23T05:20:34;15.70;77.80
52075;DHT22;38075;53.172;5.446;2022-07-23T05:23:00;15.70;71.70
52075;DHT22;38075;53.172;5.446;2022-07-23T05:25:26;15.90;71.80
52075;DHT22;38075;53.172;5.446;2022-07-23T05:27:51;15.90;63.20
52075;DHT22;38075;53.172;5.446;2022-07-23T05:30:17;15.90;61.30
52075;DHT22;38075;53.172;5.446;2022-07-23T05:32:43;16.00;58.40
52075;DHT22;38075;53.172;5.446;2022-07-23T05:35:08;16.10;56.90
52075;DHT22;38075;53.172;5.446;2022-07-23T05:37:34;16.30;57.00
52075;DHT22;38075;53.172;5.446;2022-07-23T05:40:08;16.70;58.90
52075;DHT22;38075;53.172;5.446;2022-07-23T05:42:35;17.30;53.10
52075;DHT22;38075;53.172;5.446;2022-07-23T05:45:02;17.90;56.60
52075;DHT22;38075;53.172;5.446;2022-07-23T05:47:28;18.50;52.90
52075;DHT22;38075;53.172;5.446;2022-07-23T05:49:53;18.90;50.30
52075;DHT22;38075;53.172;5.446;2022-07-23T05:52:19;19.30;47.40
52075;DHT22;38075;53.172;5.446;2022-07-23T05:54:44;19.70;46.80
52075;DHT22;38075;53.172;5.446;2022-07-23T05:57:10;20.00;40.40
52075;DHT22;38075;53.172;5.446;2022-07-23T05:59:36;20.20;38.70
52075;DHT22;38075;53.172;5.446;2022-07-23T06:02:02;20.50;35.00
52075;DHT22;38075;53.172;5.446;2022-07-23T06:04:27;20.90;32.70
52075;DHT22;38075;53.172;5.446;2022-07-23T06:06:53;20.90;30.30
52075;DHT22;38075;53.172;5.446;2022-07-23T06:09:18;21.10;29.00
52075;DHT22;38075;53.172;5.446;2022-07-23T06:11:44;20.70;27.60
52075;DHT22;38075;53.172;5.446;2022-07-23T06:14:10;20.10;27.10
52075;DHT22;38075;53.172;5.446;2022-07-23T06:16:35;19.50;26.00
52075;DHT22;38075;53.172;5.446;2022-07-23T06:19:01;19.10;26.00
52075;DHT22;38075;53.172;5.446;2022-07-23T06:21:27;18.60;25.40
52075;DHT22;38075;53.172;5.446;2022-07-23T06:23:52;18.30;24.60
52075;DHT22;38075;53.172;5.446;2022-07-23T06:26:18;18.10;27.40
52075;DHT22;38075;53.172;5.446;2022-07-23T06:28:43;18.00;24.40
52075;DHT22;38075;53.172;5.446;2022-07-23T06:31:09;17.80;24.50
52075;DHT22;38075;53.172;5.446;2022-07-23T06:33:35;17.90;25.00
52075;DHT22;38075;53.172;5.446;2022-07-23T06:36:00;17.80;25.00
52075;DHT22;38075;53.172;5.446;2022-07-23T06:38:26;17.70;25.10
52075;DHT22;38075;53.172;5.446;2022-07-23T06:40:51;17.80;26.00
52075;DHT22;38075;53.172;5.446;2022-07-23T06:43:17;17.80;26.30
52075;DHT22;38075;53.172;5.446;2022-07-23T06:45:43;17.90;27.00
52075;DHT22;38075;53.172;5.446;2022-07-23T06:48:08;17.80;27.30
52075;DHT22;38075;53.172;5.446;2022-07-23T06:50:34;17.80;27.50
52075;DHT22;38075;53.172;5.446;2022-07-23T06:53:00;17.80;31.10
52075;DHT22;38075;53.172;5.446;2022-07-23T06:55:26;17.70;28.00
52075;DHT22;38075;53.172;5.446;2022-07-23T06:57:51;17.60;28.20
52075;DHT22;38075;53.172;5.446;2022-07-23T07:00:17;17.60;28.50
52075;DHT22;38075;53.172;5.446;2022-07-23T07:02:43;17.50;28.80
52075;DHT22;38075;53.172;5.446;2022-07-23T07:05:08;17.50;28.30
52075;DHT22;38075;53.172;5.446;2022-07-23T07:07:34;17.80;28.10
52075;DHT22;38075;53.172;5.446;2022-07-23T07:10:00;17.70;28.30
52075;DHT22;38075;53.172;5.446;2022-07-23T07:12:26;17.80;28.30
52075;DHT22;38075;53.172;5.446;2022-07-23T07:14:51;17.70;28.80
52075;DHT22;38075;53.172;5.446;2022-07-23T07:17:18;17.70;28.50
52075;DHT22;38075;53.172;5.446;2022-07-23T07:19:44;17.70;28.30
52075;DHT22;38075;53.172;5.446;2022-07-23T07:22:10;17.60;28.40
52075;DHT22;38075;53.172;5.446;2022-07-23T07:24:35;17.60;28.80
52075;DHT22;38075;53.172;5.446;2022-07-23T07:27:01;17.60;29.00
52075;DHT22;38075;53.172;5.446;2022-07-23T07:29:27;17.60;29.40
52075;DHT22;38075;53.172;5.446;2022-07-23T07:31:53;17.50;29.80
52075;DHT22;38075;53.172;5.446;2022-07-23T07:34:19;17.60;30.60
52075;DHT22;38075;53.172;5.446;2022-07-23T07:36:45;17.60;31.10
52075;DHT22;38075;53.172;5.446;2022-07-23T07:39:10;17.50;31.30
52075;DHT22;38075;53.172;5.446;2022-07-23T07:41:36;17.50;31.50
52075;DHT22;38075;53.172;5.446;2022-07-23T07:44:02;17.50;31.40
52075;DHT22;38075;53.172;5.446;2022-07-23T07:46:28;17.50;31.90
52075;DHT22;38075;53.172;5.446;2022-07-23T07:48:53;17.60;33.20
52075;DHT22;38075;53.172;5.446;2022-07-23T07:51:19;17.60;33.00
52075;DHT22;38075;53.172;5.446;2022-07-23T07:53:45;17.60;32.80
52075;DHT22;38075;53.172;5.446;2022-07-23T07:56:11;17.70;31.60
52075;DHT22;38075;53.172;5.446;2022-07-23T07:58:36;17.80;31.70
52075;DHT22;38075;53.172;5.446;2022-07-23T08:01:02;17.90;31.50
52075;DHT22;38075;53.172;5.446;2022-07-23T08:03:28;18.00;32.00
52075;DHT22;38075;53.172;5.446;2022-07-23T08:05:54;17.90;31.10
52075;DHT22;38075;53.172;5.446;2022-07-23T08:08:19;17.90;32.00
52075;DHT22;38075;53.172;5.446;2022-07-23T08:10:45;17.90;32.00
52075;DHT22;38075;53.172;5.446;2022-07-23T08:13:14;17.90;31.60
52075;DHT22;38075;53.172;5.446;2022-07-23T08:15:41;18.00;31.70
52075;DHT22;38075;53.172;5.446;2022-07-23T08:18:07;18.00;31.50
52075;DHT22;38075;53.172;5.446;2022-07-23T08:20:32;17.90;31.90
52075;DHT22;38075;53.172;5.446;2022-07-23T08:23:00;17.90;31.60
52075;DHT22;38075;53.172;5.446;2022-07-23T08:25:36;17.90;32.10
52075;DHT22;38075;53.172;5.446;2022-07-23T08:28:05;17.90;32.10
52075;DHT22;38075;53.172;5.446;2022-07-23T08:30:31;17.80;31.70
52075;DHT22;38075;53.172;5.446;2022-07-23T08:33:05;17.90;33.00
52075;DHT22;38075;53.172;5.446;2022-07-23T08:35:38;17.90;34.80
52075;DHT22;38075;53.172;5.446;2022-07-23T08:38:08;18.00;33.60
52075;DHT22;38075;53.172;5.446;2022-07-23T08:40:36;18.00;33.30
52075;DHT22;38075;53.172;5.446;2022-07-23T08:43:07;18.00;33.30
52075;DHT22;38075;53.172;5.446;2022-07-23T08:45:46;18.10;33.90
52075;DHT22;38075;53.172;5.446;2022-07-23T08:48:14;18.10;34.40
52075;DHT22;38075;53.172;5.446;2022-07-23T08:50:48;18.20;35.60
52075;DHT22;38075;53.172;5.446;2022-07-23T08:53:14;18.30;34.70
52075;DHT22;38075;53.172;5.446;2022-07-23T08:55:43;18.60;34.50
52075;DHT22;38075;53.172;5.446;2022-07-23T08:58:09;18.30;33.70
52075;DHT22;38075;53.172;5.446;2022-07-23T09:00:34;18.40;33.70
52075;DHT22;38075;53.172;5.446;2022-07-23T09:03:00;18.40;33.50
52075;DHT22;38075;53.172;5.446;2022-07-23T09:05:26;18.90;33.70
52075;DHT22;38075;53.172;5.446;2022-07-23T09:08:15;19.20;31.50
52075;DHT22;38075;53.172;5.446;2022-07-23T09:10:57;19.50;28.70
52075;DHT22;38075;53.172;5.446;2022-07-23T09:13:30;19.80;29.50
52075;DHT22;38075;53.172;5.446;2022-07-23T09:18:36;20.00;28.70
52075;DHT22;38075;53.172;5.446;2022-07-23T09:21:07;20.00;28.40
52075;DHT22;38075;53.172;5.446;2022-07-23T09:23:40;19.90;28.10
52075;DHT22;38075;53.172;5.446;2022-07-23T09:26:26;19.70;27.30
52075;DHT22;38075;53.172;5.446;2022-07-23T09:31:41;19.70;26.20
52075;DHT22;38075;53.172;5.446;2022-07-23T09:34:09;19.90;27.30
52075;DHT22;38075;53.172;5.446;2022-07-23T09:36:35;20.20;27.00
52075;DHT22;38075;53.172;5.446;2022-07-23T09:39:02;20.30;27.20
52075;DHT22;38075;53.172;5.446;2022-07-23T09:41:38;20.30;26.80
52075;DHT22;38075;53.172;5.446;2022-07-23T09:44:15;20.50;26.60
52075;DHT22;38075;53.172;5.446;2022-07-23T09:46:43;20.40;26.00
52075;DHT22;38075;53.172;5.446;2022-07-23T09:49:12;20.20;26.20
52075;DHT22;38075;53.172;5.446;2022-07-23T09:51:50;20.20;26.00
52075;DHT22;38075;53.172;5.446;2022-07-23T09:54:30;20.20;25.70
52075;DHT22;38075;53.172;5.446;2022-07-23T09:56:58;20.30;24.90
52075;DHT22;38075;53.172;5.446;2022-07-23T09:59:29;20.50;25.40
52075;DHT22;38075;53.172;5.446;2022-07-23T10:01:57;20.50;24.90
52075;DHT22;38075;53.172;5.446;2022-07-23T10:04:25;20.40;28.00
52075;DHT22;38075;53.172;5.446;2022-07-23T10:06:53;20.20;24.70
52075;DHT22;38075;53.172;5.446;2022-07-23T10:09:24;20.20;24.80
52075;DHT22;38075;53.172;5.446;2022-07-23T10:11:50;20.30;24.90
52075;DHT22;38075;53.172;5.446;2022-07-23T10:14:16;20.30;24.40
52075;DHT22;38075;53.172;5.446;2022-07-23T10:16:42;20.10;24.60
52075;DHT22;38075;53.172;5.446;2022-07-23T10:19:08;20.40;25.40
52075;DHT22;38075;53.172;5.446;2022-07-23T10:21:46;20.70;24.40
52075;DHT22;38075;53.172;5.446;2022-07-23T10:24:43;20.80;23.60
52075;DHT22;38075;53.172;5.446;2022-07-23T10:30:25;20.50;22.50
52075;DHT22;38075;53.172;5.446;2022-07-23T10:33:04;20.50;23.00
52075;DHT22;38075;53.172;5.446;2022-07-23T10:35:47;20.60;23.20
52075;DHT22;38075;53.172;5.446;2022-07-23T10:38:24;20.50;22.90
52075;DHT22;38075;53.172;5.446;2022-07-23T10:41:00;20.60;23.10
52075;DHT22;38075;53.172;5.446;2022-07-23T10:43:26;20.70;23.00
52075;DHT22;38075;53.172;5.446;2022-07-23T10:45:52;20.80;22.80
52075;DHT22;38075;53.172;5.446;2022-07-23T10:48:25;20.80;22.30
52075;DHT22;38075;53.172;5.446;2022-07-23T10:51:09;20.90;23.00
52075;DHT22;38075;53.172;5.446;2022-07-23T10:56:46;20.50;22.30
52075;DHT22;38075;53.172;5.446;2022-07-23T10:59:06;20.60;21.70
52075;DHT22;38075;53.172;5.446;2022-07-23T11:01:36;20.80;22.50
52075;DHT22;38075;53.172;5.446;2022-07-23T11:04:03;21.10;22.50
52075;DHT22;38075;53.172;5.446;2022-07-23T11:09:31;21.30;21.60
52075;DHT22;38075;53.172;5.446;2022-07-23T11:18:19;21.30;21.20
52075;DHT22;38075;53.172;5.446;2022-07-23T11:20:22;21.80;22.80
52075;DHT22;38075;53.172;5.446;2022-07-23T11:22:51;21.80;21.90
52075;DHT22;38075;53.172;5.446;2022-07-23T11:25:35;21.60;21.60
52075;DHT22;38075;53.172;5.446;2022-07-23T11:28:17;21.20;20.40
52075;DHT22;38075;53.172;5.446;2022-07-23T11:30:46;21.10;21.30
52075;DHT22;38075;53.172;5.446;2022-07-23T11:35:46;21.60;21.30
52075;DHT22;38075;53.172;5.446;2022-07-23T11:38:17;21.60;21.40
52075;DHT22;38075;53.172;5.446;2022-07-23T11:40:46;21.60;20.90
52075;DHT22;38075;53.172;5.446;2022-07-23T11:43:12;21.80;21.40
52075;DHT22;38075;53.172;5.446;2022-07-23T11:45:44;22.00;21.40
52075;DHT22;38075;53.172;5.446;2022-07-23T11:48:21;22.10;20.70
52075;DHT22;38075;53.172;5.446;2022-07-23T11:50:47;22.10;20.50
52075;DHT22;38075;53.172;5.446;2022-07-23T11:53:13;21.90;20.70
52075;DHT22;38075;53.172;5.446;2022-07-23T11:55:39;21.90;20.50
52075;DHT22;38075;53.172;5.446;2022-07-23T11:58:04;22.00;20.70
52075;DHT22;38075;53.172;5.446;2022-07-23T12:00:31;22.00;20.50
52075;DHT22;38075;53.172;5.446;2022-07-23T12:02:59;22.30;20.80
52075;DHT22;38075;53.172;5.446;2022-07-23T12:05:31;22.30;20.40
52075;DHT22;38075;53.172;5.446;2022-07-23T12:07:59;22.30;19.90
52075;DHT22;38075;53.172;5.446;2022-07-23T12:10:27;22.30;19.90
52075;DHT22;38075;53.172;5.446;2022-07-23T12:13:22;22.30;19.50
52075;DHT22;38075;53.172;5.446;2022-07-23T12:15:50;22.40;19.00
52075;DHT22;38075;53.172;5.446;2022-07-23T12:18:19;22.10;19.50
52075;DHT22;38075;53.172;5.446;2022-07-23T12:20:48;22.40;20.20
52075;DHT22;38075;53.172;5.446;2022-07-23T12:23:17;22.50;19.50
52075;DHT22;38075;53.172;5.446;2022-07-23T12:25:45;22.30;19.10
52075;DHT22;38075;53.172;5.446;2022-07-23T12:28:14;22.40;19.20
52075;DHT22;38075;53.172;5.446;2022-07-23T12:30:43;22.30;21.80
52075;DHT22;38075;53.172;5.446;2022-07-23T12:33:15;22.50;19.10
52075;DHT22;38075;53.172;5.446;2022-07-23T12:35:47;22.50;19.30
52075;DHT22;38075;53.172;5.446;2022-07-23T12:38:21;22.50;19.40
52075;DHT22;38075;53.172;5.446;2022-07-23T12:40:49;22.50;19.30
52075;DHT22;38075;53.172;5.446;2022-07-23T12:48:35;22.40;19.00
52075;DHT22;38075;53.172;5.446;2022-07-23T12:51:09;22.20;19.20
52075;DHT22;38075;53.172;5.446;2022-07-23T12:53:45;22.50;19.10
52075;DHT22;38075;53.172;5.446;2022-07-23T12:56:12;22.60;19.40
52075;DHT22;38075;53.172;5.446;2022-07-23T12:58:45;22.80;19.20
52075;DHT22;38075;53.172;5.446;2022-07-23T13:06:24;22.60;18.60
52075;DHT22;38075;53.172;5.446;2022-07-23T13:08:49;22.40;18.90
52075;DHT22;38075;53.172;5.446;2022-07-23T13:11:15;22.40;21.70
52075;DHT22;38075;53.172;5.446;2022-07-23T13:13:41;22.50;18.60
52075;DHT22;38075;53.172;5.446;2022-07-23T13:16:07;22.30;18.00
52075;DHT22;38075;53.172;5.446;2022-07-23T13:18:32;22.20;18.10
52075;DHT22;38075;53.172;5.446;2022-07-23T13:20:59;22.40;18.40
52075;DHT22;38075;53.172;5.446;2022-07-23T13:23:28;22.50;18.30
52075;DHT22;38075;53.172;5.446;2022-07-23T13:25:54;22.40;17.50
52075;DHT22;38075;53.172;5.446;2022-07-23T13:28:21;22.50;17.60
52075;DHT22;38075;53.172;5.446;2022-07-23T13:30:48;22.40;17.40
52075;DHT22;38075;53.172;5.446;2022-07-23T13:33:19;22.40;17.20
52075;DHT22;38075;53.172;5.446;2022-07-23T13:35:45;22.50;17.20
52075;DHT22;38075;53.172;5.446;2022-07-23T13:38:11;22.80;18.00
52075;DHT22;38075;53.172;5.446;2022-07-23T13:40:40;22.90;17.90
52075;DHT22;38075;53.172;5.446;2022-07-23T13:43:11;23.00;17.40
52075;DHT22;38075;53.172;5.446;2022-07-23T13:45:38;22.80;17.00
52075;DHT22;38075;53.172;5.446;2022-07-23T13:48:05;22.70;16.90
52075;DHT22;38075;53.172;5.446;2022-07-23T13:50:31;22.80;16.90
52075;DHT22;38075;53.172;5.446;2022-07-23T13:53:01;22.70;17.00
52075;DHT22;38075;53.172;5.446;2022-07-23T13:55:27;22.90;16.80
52075;DHT22;38075;53.172;5.446;2022-07-23T13:57:52;22.70;16.60
52075;DHT22;38075;53.172;5.446;2022-07-23T14:00:18;22.70;16.70
52075;DHT22;38075;53.172;5.446;2022-07-23T14:02:43;22.80;16.40
52075;DHT22;38075;53.172;5.446;2022-07-23T14:05:10;22.70;16.00
52075;DHT22;38075;53.172;5.446;2022-07-23T14:07:39;22.70;15.80
52075;DHT22;38075;53.172;5.446;2022-07-23T14:10:06;22.60;16.30
52075;DHT22;38075;53.172;5.446;2022-07-23T14:12:32;22.80;16.30
52075;DHT22;38075;53.172;5.446;2022-07-23T14:14:58;22.90;16.40
52075;DHT22;38075;53.172;5.446;2022-07-23T14:17:24;23.00;15.90
52075;DHT22;38075;53.172;5.446;2022-07-23T14:19:50;23.00;15.30
52075;DHT22;38075;53.172;5.446;2022-07-23T14:22:16;22.90;15.30
52075;DHT22;38075;53.172;5.446;2022-07-23T14:24:42;22.70;15.10
52075;DHT22;38075;53.172;5.446;2022-07-23T14:27:08;22.80;15.30
52075;DHT22;38075;53.172;5.446;2022-07-23T14:29:34;22.70;15.00
52075;DHT22;38075;53.172;5.446;2022-07-23T14:32:00;22.80;15.30
52075;DHT22;38075;53.172;5.446;2022-07-23T14:34:28;22.90;15.20
52075;DHT22;38075;53.172;5.446;2022-07-23T14:36:54;22.90;14.40
52075;DHT22;38075;53.172;5.446;2022-07-23T14:39:20;23.10;14.50
52075;DHT22;38075;53.172;5.446;2022-07-23T14:41:46;23.10;14.60
52075;DHT22;38075;53.172;5.446;2022-07-23T14:44:12;23.30;14.50
52075;DHT22;38075;53.172;5.446;2022-07-23T14:46:37;23.10;14.20
52075;DHT22;38075;53.172;5.446;2022-07-23T14:49:03;22.90;13.20
52075;DHT22;38075;53.172;5.446;2022-07-23T14:51:29;22.90;13.40
52075;DHT22;38075;53.172;5.446;2022-07-23T14:53:57;23.00;13.20
52075;DHT22;38075;53.172;5.446;2022-07-23T14:56:23;23.10;13.60
52075;DHT22;38075;53.172;5.446;2022-07-23T14:58:49;23.20;13.30
52075;DHT22;38075;53.172;5.446;2022-07-23T15:01:14;23.20;13.00
52075;DHT22;38075;53.172;5.446;2022-07-23T15:03:40;23.20;12.90
52075;DHT22;38075;53.172;5.446;2022-07-23T15:06:06;23.20;12.80
52075;DHT22;38075;53.172;5.446;2022-07-23T15:08:32;23.40;12.60
52075;DHT22;38075;53.172;5.446;2022-07-23T15:10:57;23.30;14.40
52075;DHT22;38075;53.172;5.446;2022-07-23T15:13:23;23.30;11.40
52075;DHT22;38075;53.172;5.446;2022-07-23T15:15:49;23.30;11.60
52075;DHT22;38075;53.172;5.446;2022-07-23T15:18:14;23.50;11.90
52075;DHT22;38075;53.172;5.446;2022-07-23T15:20:40;23.40;11.60
52075;DHT22;38075;53.172;5.446;2022-07-23T15:23:06;23.40;11.60
52075;DHT22;38075;53.172;5.446;2022-07-23T15:25:32;23.50;11.80
52075;DHT22;38075;53.172;5.446;2022-07-23T15:27:58;23.50;11.50
52075;DHT22;38075;53.172;5.446;2022-07-23T15:30:25;23.20;11.30
52075;DHT22;38075;53.172;5.446;2022-07-23T15:32:51;23.40;14.20
52075;DHT22;38075;53.172;5.446;2022-07-23T15:35:16;23.20;10.90
52075;DHT22;38075;53.172;5.446;2022-07-23T15:37:42;23.30;10.70
52075;DHT22;38075;53.172;5.446;2022-07-23T15:40:08;23.30;10.90
52075;DHT22;38075;53.172;5.446;2022-07-23T15:42:35;23.20;10.70
52075;DHT22;38075;53.172;5.446;2022-07-23T15:45:01;23.10;10.60
52075;DHT22;38075;53.172;5.446;2022-07-23T15:47:27;23.00;10.00
52075;DHT22;38075;53.172;5.446;2022-07-23T15:49:52;23.00;10.60
52075;DHT22;38075;53.172;5.446;2022-07-23T15:52:18;22.90;10.70
52075;DHT22;38075;53.172;5.446;2022-07-23T15:54:44;23.00;10.80
52075;DHT22;38075;53.172;5.446;2022-07-23T15:57:09;23.00;11.00
52075;DHT22;38075;53.172;5.446;2022-07-23T15:59:35;23.10;11.10
52075;DHT22;38075;53.172;5.446;2022-07-23T16:02:01;23.00;10.90
52075;DHT22;38075;53.172;5.446;2022-07-23T16:04:27;22.90;11.10